Time;durP1;ratioP1;P1;durP2;ratioP2;P2;SDS_P1;SDS_P2;PMS_P1;PMS_P2;Temp;Humidity;BMP_temperature;BMP_pressure;BME280_temperature;BME280_humidity;BME280_pressure;Samples;Min_cycle;Max_cycle;Signal;HPM_P1;HPM_P2
2021/06/23 00:00:20;;;;;;;8.85;5.25;;;;;;;;;;5095427;28;20038;-59
2021/06/23 00:02:46;;;;;;;9.15;5.03;;;;;;;;;;5095522;28;20035;-59
2021/06/23 00:05:12;;;;;;;7.05;4.85;;;;;;;;;;5095328;28;20032;-59
2021/06/23 00:07:38;;;;;;;5.10;4.57;;;;;;;;;;5094145;28;20024;-59
2021/06/23 00:10:04;;;;;;;5.10;4.43;;;;;;;;;;5095574;28;20112;-59
2021/06/23 00:12:30;;;;;;;5.97;5.38;;;;;;;;;;5095836;28;20028;-59
2021/06/23 00:14:57;;;;;;;5.18;4.68;;;;;;;;;;5096056;28;20066;-59
2021/06/23 00:17:23;;;;;;;6.07;5.47;;;;;;;;;;5094578;28;20431;-59
2021/06/23 00:19:49;;;;;;;7.18;5.68;;;;;;;;;;5096007;28;20043;-59
2021/06/23 00:22:15;;;;;;;6.05;4.90;;;;;;;;;;5094459;28;20477;-59
2021/06/23 00:24:41;;;;;;;6.50;5.00;;;;;;;;;;5095084;28;20024;-59
2021/06/23 00:27:08;;;;;;;5.45;4.90;;;;;;;;;;5095046;28;20016;-59
2021/06/23 00:29:34;;;;;;;8.00;5.28;;;;;;;;;;5095309;28;20102;-59
2021/06/23 00:32:00;;;;;;;5.18;4.68;;;;;;;;;;5095435;28;20366;-59
2021/06/23 00:34:28;;;;;;;4.88;4.35;;;;;;;;;;5094873;28;20020;-59
2021/06/23 00:36:54;;;;;;;5.40;4.20;;;;;;;;;;5094467;28;20476;-59
2021/06/23 00:39:20;;;;;;;4.93;4.47;;;;;;;;;;5094089;28;20360;-59
2021/06/23 00:41:46;;;;;;;5.35;4.43;;;;;;;;;;5094581;28;20080;-59
2021/06/23 00:44:13;;;;;;;5.57;3.70;;;;;;;;;;5094739;28;20115;-59
2021/06/23 00:46:41;;;;;;;6.53;4.75;;;;;;;;;;5094938;28;20027;-59
2021/06/23 00:49:07;;;;;;;4.97;4.28;;;;;;;;;;5094599;28;20023;-59
2021/06/23 00:51:34;;;;;;;4.93;4.05;;;;;;;;;;5095107;28;20408;-59
2021/06/23 00:54:00;;;;;;;6.85;4.50;;;;;;;;;;5094646;28;20374;-59
2021/06/23 00:56:35;;;;;;;4.60;3.55;;;;;;;;;;5094544;28;20146;-59
2021/06/23 00:59:01;;;;;;;3.85;3.45;;;;;;;;;;5094216;28;20378;-59
2021/06/23 01:01:29;;;;;;;5.72;4.38;;;;;;;;;;5095257;28;20107;-59
2021/06/23 01:03:55;;;;;;;5.22;4.05;;;;;;;;;;5093078;28;20081;-59
2021/06/23 01:06:21;;;;;;;4.88;4.05;;;;;;;;;;5094858;28;20051;-59
2021/06/23 01:08:47;;;;;;;4.35;3.38;;;;;;;;;;5094143;28;20044;-59
2021/06/23 01:11:13;;;;;;;4.72;4.18;;;;;;;;;;5094505;28;20142;-59
2021/06/23 01:14:01;;;;;;;5.45;3.63;;;;;;;;;;5094288;28;20063;-59
2021/06/23 01:16:28;;;;;;;6.80;3.30;;;;;;;;;;5094444;28;20028;-59
2021/06/23 01:18:54;;;;;;;4.72;4.18;;;;;;;;;;5094215;28;20047;-59
2021/06/23 01:21:20;;;;;;;4.07;3.65;;;;;;;;;;5094675;28;20414;-59
2021/06/23 01:23:46;;;;;;;4.65;3.50;;;;;;;;;;5094588;28;20020;-59
2021/06/23 01:26:12;;;;;;;4.68;3.47;;;;;;;;;;5094623;28;20335;-59
2021/06/23 01:28:38;;;;;;;7.90;3.92;;;;;;;;;;5093907;28;20024;-59
2021/06/23 01:31:04;;;;;;;4.78;4.30;;;;;;;;;;5093008;28;20034;-59
2021/06/23 01:33:32;;;;;;;4.57;3.83;;;;;;;;;;5093898;28;20408;-59
2021/06/23 01:35:58;;;;;;;6.10;3.20;;;;;;;;;;5093989;28;20063;-59
2021/06/23 01:38:24;;;;;;;7.22;3.92;;;;;;;;;;5092673;28;20047;-59
2021/06/23 01:40:50;;;;;;;8.40;3.55;;;;;;;;;;5094150;28;20548;-59
2021/06/23 01:43:19;;;;;;;4.88;4.38;;;;;;;;;;5093816;28;20381;-59
2021/06/23 01:45:46;;;;;;;3.78;3.42;;;;;;;;;;5093806;28;20387;-58
2021/06/23 01:48:22;;;;;;;5.47;3.70;;;;;;;;;;5094131;28;20399;-59
2021/06/23 01:50:53;;;;;;;5.10;4.05;;;;;;;;;;5092543;28;20115;-59
2021/06/23 01:53:19;;;;;;;4.13;3.40;;;;;;;;;;5093565;28;20036;-59
2021/06/23 01:55:47;;;;;;;7.70;4.03;;;;;;;;;;5093885;28;20024;-59
2021/06/23 01:58:13;;;;;;;6.90;3.95;;;;;;;;;;5093149;28;20016;-59
2021/06/23 02:00:48;;;;;;;4.20;3.55;;;;;;;;;;5094540;28;20446;-59
2021/06/23 02:03:19;;;;;;;4.40;4.00;;;;;;;;;;5094559;28;20036;-59
2021/06/23 02:05:45;;;;;;;;;;;;;;;;;;5094039;28;20120;-59
2021/06/23 02:08:11;;;;;;;3.13;2.75;;;;;;;;;;5093957;28;19908;-59
2021/06/23 02:10:40;;;;;;;5.38;3.85;;;;;;;;;;5093630;28;20093;-59
2021/06/23 02:13:26;;;;;;;4.55;3.63;;;;;;;;;;5094080;28;20115;-59
2021/06/23 02:15:52;;;;;;;3.97;3.17;;;;;;;;;;5052334;28;20032;-59
2021/06/23 02:18:21;;;;;;;3.92;3.42;;;;;;;;;;5093473;28;20044;-59
2021/06/23 02:20:50;;;;;;;3.72;3.03;;;;;;;;;;5092856;28;20021;-59
2021/06/23 02:23:16;;;;;;;4.45;3.70;;;;;;;;;;5093418;28;20123;-59
2021/06/23 02:25:42;;;;;;;4.93;3.08;;;;;;;;;;5093418;28;20067;-59
2021/06/23 02:28:12;;;;;;;5.53;3.60;;;;;;;;;;5093487;28;20074;-59
2021/06/23 02:30:38;;;;;;;3.65;3.28;;;;;;;;;;5075482;28;20175;-59
2021/06/23 02:33:05;;;;;;;5.45;4.13;;;;;;;;;;5093086;28;20038;-59
2021/06/23 02:35:31;;;;;;;4.22;3.83;;;;;;;;;;5093417;28;20034;-59
2021/06/23 02:37:58;;;;;;;4.85;3.85;;;;;;;;;;5093591;28;20031;-59
2021/06/23 02:40:25;;;;;;;5.70;4.30;;;;;;;;;;5095007;28;20028;-59
2021/06/23 02:42:51;;;;;;;4.20;3.15;;;;;;;;;;5097443;28;20377;-59
2021/06/23 02:45:17;;;;;;;3.85;3.20;;;;;;;;;;5096353;28;20466;-59
2021/06/23 02:47:46;;;;;;;3.88;3.47;;;;;;;;;;5097520;28;20453;-59
2021/06/23 02:50:12;;;;;;;4.72;3.90;;;;;;;;;;5096701;28;20024;-59
2021/06/23 02:52:40;;;;;;;4.95;3.72;;;;;;;;;;5096836;28;20462;-59
2021/06/23 02:55:06;;;;;;;5.55;3.40;;;;;;;;;;5096851;28;20346;-59
2021/06/23 02:57:34;;;;;;;4.28;3.78;;;;;;;;;;5096593;28;20027;-59
2021/06/23 03:00:00;;;;;;;5.68;4.82;;;;;;;;;;5096443;28;20484;-59
2021/06/23 03:02:26;;;;;;;5.32;4.03;;;;;;;;;;5096736;28;20027;-58
2021/06/23 03:04:52;;;;;;;4.60;4.20;;;;;;;;;;5096949;28;20016;-58
2021/06/23 03:07:18;;;;;;;4.40;3.85;;;;;;;;;;5096867;28;20020;-58
2021/06/23 03:09:45;;;;;;;4.47;4.05;;;;;;;;;;5096312;28;20055;-59
2021/06/23 03:12:12;;;;;;;5.18;4.68;;;;;;;;;;5095523;28;20458;-59
2021/06/23 03:14:38;;;;;;;5.65;4.10;;;;;;;;;;5096477;28;20071;-59
2021/06/23 03:17:04;;;;;;;4.10;3.70;;;;;;;;;;5096208;28;20032;-59
2021/06/23 03:19:30;;;;;;;5.05;4.57;;;;;;;;;;5096930;28;20098;-59
2021/06/23 03:21:56;;;;;;;4.45;4.05;;;;;;;;;;5095425;28;20032;-59
2021/06/23 03:24:22;;;;;;;4.25;3.85;;;;;;;;;;5096286;28;20089;-59
2021/06/23 03:26:48;;;;;;;5.07;3.45;;;;;;;;;;5095985;28;20028;-59
2021/06/23 03:29:20;;;;;;;4.40;3.75;;;;;;;;;;5094988;28;20063;-59
2021/06/23 03:31:46;;;;;;;4.00;3.55;;;;;;;;;;5096661;28;20073;-59
2021/06/23 03:34:12;;;;;;;4.43;3.28;;;;;;;;;;5094983;28;20466;-57
2021/06/23 03:36:40;;;;;;;4.20;3.70;;;;;;;;;;5096722;28;20031;-59
2021/06/23 03:39:06;;;;;;;4.72;3.67;;;;;;;;;;5095085;28;20028;-59
2021/06/23 03:41:32;;;;;;;4.88;3.40;;;;;;;;;;5096656;28;20122;-58
2021/06/23 03:43:58;;;;;;;4.90;4.32;;;;;;;;;;5094867;28;20116;-58
2021/06/23 03:46:24;;;;;;;6.22;4.30;;;;;;;;;;5095891;28;20507;-58
2021/06/23 03:48:50;;;;;;;5.47;4.25;;;;;;;;;;5095888;28;20071;-59
2021/06/23 03:51:16;;;;;;;6.20;4.25;;;;;;;;;;5094316;28;20111;-58
2021/06/23 03:53:42;;;;;;;4.30;3.28;;;;;;;;;;5095873;28;20035;-59
2021/06/23 03:56:08;;;;;;;3.72;3.17;;;;;;;;;;5095520;28;20089;-59
2021/06/23 03:58:34;;;;;;;5.95;3.50;;;;;;;;;;5095655;28;20025;-59
2021/06/23 04:01:00;;;;;;;4.53;3.20;;;;;;;;;;5094761;28;20028;-59
2021/06/23 04:03:26;;;;;;;4.63;3.55;;;;;;;;;;5094587;28;20024;-59
2021/06/23 04:05:52;;;;;;;4.05;2.50;;;;;;;;;;5095840;28;20438;-59
2021/06/23 04:08:18;;;;;;;3.72;3.03;;;;;;;;;;5095258;28;20369;-59
2021/06/23 04:10:44;;;;;;;3.00;2.22;;;;;;;;;;5096327;28;20359;-59
2021/06/23 04:13:10;;;;;;;2.97;2.33;;;;;;;;;;5095680;28;20035;-59
2021/06/23 04:15:36;;;;;;;2.92;2.40;;;;;;;;;;5096197;28;20035;-59
2021/06/23 04:18:02;;;;;;;5.00;3.35;;;;;;;;;;5094400;28;20030;-59
2021/06/23 04:20:28;;;;;;;3.33;2.78;;;;;;;;;;5095591;28;20070;-59
2021/06/23 04:22:54;;;;;;;7.07;3.97;;;;;;;;;;5095303;28;20067;-59
2021/06/23 04:25:20;;;;;;;3.90;2.92;;;;;;;;;;5095499;28;20031;-59
2021/06/23 04:27:46;;;;;;;3.70;3.30;;;;;;;;;;5096414;28;20074;-58
2021/06/23 04:30:13;;;;;;;5.82;4.05;;;;;;;;;;5095677;28;20369;-58
2021/06/23 04:32:39;;;;;;;4.35;3.42;;;;;;;;;;5093724;28;20027;-58
2021/06/23 04:35:07;;;;;;;3.70;3.13;;;;;;;;;;5093744;28;20032;-59
2021/06/23 04:37:34;;;;;;;4.10;3.17;;;;;;;;;;5094940;28;20111;-59
2021/06/23 04:40:00;;;;;;;3.25;2.95;;;;;;;;;;5095482;28;20020;-59
2021/06/23 04:42:29;;;;;;;5.28;3.50;;;;;;;;;;5095139;28;20416;-59
2021/06/23 04:44:55;;;;;;;5.10;3.83;;;;;;;;;;5095209;28;20408;-59
2021/06/23 04:47:23;;;;;;;4.32;3.55;;;;;;;;;;5094986;28;20088;-59
2021/06/23 04:49:49;;;;;;;5.10;3.53;;;;;;;;;;5094713;28;20024;-58
2021/06/23 04:52:15;;;;;;;4.90;3.88;;;;;;;;;;5095083;28;20031;-58
2021/06/23 04:54:41;;;;;;;7.07;3.92;;;;;;;;;;5094963;28;20362;-59
2021/06/23 04:57:07;;;;;;;4.03;3.38;;;;;;;;;;5095049;28;20020;-59
2021/06/23 04:59:33;;;;;;;5.22;4.03;;;;;;;;;;5095061;28;20023;-59
2021/06/23 05:01:59;;;;;;;4.10;3.70;;;;;;;;;;5095054;28;20107;-58
2021/06/23 05:04:25;;;;;;;4.05;3.20;;;;;;;;;;5094824;28;20028;-59
2021/06/23 05:06:51;;;;;;;3.47;2.83;;;;;;;;;;5094122;28;20024;-59
2021/06/23 05:09:17;;;;;;;3.15;2.33;;;;;;;;;;5094138;28;20044;-59
2021/06/23 05:11:43;;;;;;;3.88;3.13;;;;;;;;;;5093282;28;20077;-59
2021/06/23 05:14:11;;;;;;;5.82;2.10;;;;;;;;;;5094217;28;20028;-59
2021/06/23 05:16:38;;;;;;;3.35;2.50;;;;;;;;;;5094311;28;20108;-59
2021/06/23 05:19:07;;;;;;;6.47;2.05;;;;;;;;;;5094225;28;20107;-59
2021/06/23 05:21:36;;;;;;;3.20;2.08;;;;;;;;;;5094274;28;20466;-59
2021/06/23 05:24:02;;;;;;;3.08;2.10;;;;;;;;;;5094231;28;20106;-59
2021/06/23 05:26:29;;;;;;;3.60;1.95;;;;;;;;;;5094192;28;20025;-59
2021/06/23 05:28:54;;;;;;;2.42;1.67;;;;;;;;;;5094122;28;20078;-59
2021/06/23 05:31:21;;;;;;;2.90;1.80;;;;;;;;;;5094292;28;20373;-58
2021/06/23 05:33:46;;;;;;;2.47;1.60;;;;;;;;;;5093706;28;20024;-59
2021/06/23 05:36:12;;;;;;;3.00;1.38;;;;;;;;;;5092725;28;20107;-59
2021/06/23 05:38:39;;;;;;;2.38;1.50;;;;;;;;;;5094598;28;20038;-59
2021/06/23 05:41:05;;;;;;;3.53;2.05;;;;;;;;;;5094395;28;20028;-59
2021/06/23 05:43:31;;;;;;;2.97;2.38;;;;;;;;;;5093844;28;20047;-59
2021/06/23 05:45:57;;;;;;;2.58;1.58;;;;;;;;;;5093585;28;20020;-59
2021/06/23 05:48:23;;;;;;;3.60;1.98;;;;;;;;;;5093599;28;20028;-59
2021/06/23 05:50:51;;;;;;;2.33;1.40;;;;;;;;;;5093854;28;20103;-59
2021/06/23 05:53:17;;;;;;;2.08;1.10;;;;;;;;;;5092426;28;20031;-59
2021/06/23 05:55:44;;;;;;;4.63;1.77;;;;;;;;;;5093778;28;20024;-59
2021/06/23 05:58:10;;;;;;;2.88;2.28;;;;;;;;;;5093673;28;20438;-59
2021/06/23 06:00:36;;;;;;;2.78;1.58;;;;;;;;;;5093759;28;20028;-59
2021/06/23 06:03:03;;;;;;;2.30;1.23;;;;;;;;;;5092521;28;20515;-59
2021/06/23 06:05:29;;;;;;;3.88;1.98;;;;;;;;;;5093365;28;20102;-59
2021/06/23 06:07:55;;;;;;;3.95;2.08;;;;;;;;;;5093606;28;20069;-59
2021/06/23 06:10:21;;;;;;;5.13;2.20;;;;;;;;;;5094311;28;20455;-59
2021/06/23 06:12:47;;;;;;;2.92;1.90;;;;;;;;;;5092895;28;20076;-59
2021/06/23 06:15:13;;;;;;;2.80;1.58;;;;;;;;;;5094965;28;20473;-59
2021/06/23 06:17:39;;;;;;;6.18;2.03;;;;;;;;;;5098230;28;20030;-59
2021/06/23 06:20:06;;;;;;;3.03;1.70;;;;;;;;;;5097550;28;20142;-59
2021/06/23 06:22:34;;;;;;;2.05;1.33;;;;;;;;;;5098174;28;20047;-59
2021/06/23 06:25:01;;;;;;;3.40;2.28;;;;;;;;;;5097738;28;20028;-59
2021/06/23 06:27:27;;;;;;;2.70;1.75;;;;;;;;;;5098019;28;20047;-59
2021/06/23 06:29:53;;;;;;;2.10;1.45;;;;;;;;;;5097980;28;20453;-59
2021/06/23 06:32:19;;;;;;;3.63;2.40;;;;;;;;;;5096920;28;20024;-59
2021/06/23 06:34:45;;;;;;;2.72;1.42;;;;;;;;;;5095951;28;20438;-59
2021/06/23 06:37:11;;;;;;;2.63;1.88;;;;;;;;;;5097299;28;20027;-59
2021/06/23 06:39:37;;;;;;;3.30;1.92;;;;;;;;;;5097229;28;20031;-59
2021/06/23 06:42:04;;;;;;;1.38;0.75;;;;;;;;;;5096802;28;20036;-59
2021/06/23 06:44:31;;;;;;;2.30;1.10;;;;;;;;;;5097398;28;20458;-59
2021/06/23 06:46:58;;;;;;;2.10;1.08;;;;;;;;;;5097031;28;20035;-59
2021/06/23 06:49:27;;;;;;;2.20;1.25;;;;;;;;;;5097082;28;20021;-59
2021/06/23 06:51:57;;;;;;;1.80;0.90;;;;;;;;;;5095787;28;20553;-59
2021/06/23 06:54:23;;;;;;;2.55;1.52;;;;;;;;;;5097052;28;20032;-59
2021/06/23 06:56:49;;;;;;;2.10;1.20;;;;;;;;;;5096500;28;20024;-59
2021/06/23 06:59:15;;;;;;;1.83;1.27;;;;;;;;;;5096871;28;20024;-59
2021/06/23 07:01:41;;;;;;;2.90;1.40;;;;;;;;;;5096147;28;20077;-59
2021/06/23 07:04:07;;;;;;;2.50;1.48;;;;;;;;;;5097337;28;20023;-59
2021/06/23 07:06:33;;;;;;;2.63;1.63;;;;;;;;;;5096782;28;20020;-59
2021/06/23 07:08:59;;;;;;;2.55;1.80;;;;;;;;;;5096373;28;20131;-59
2021/06/23 07:11:25;;;;;;;3.03;1.70;;;;;;;;;;5096616;28;20055;-59
2021/06/23 07:13:51;;;;;;;2.35;1.35;;;;;;;;;;5096858;28;20031;-59
2021/06/23 07:16:17;;;;;;;3.45;1.45;;;;;;;;;;5096542;28;20102;-60
2021/06/23 07:18:45;;;;;;;2.33;1.25;;;;;;;;;;5095288;28;20073;-59
2021/06/23 07:21:17;;;;;;;3.38;1.15;;;;;;;;;;5095307;28;20027;-59
2021/06/23 07:23:43;;;;;;;2.90;2.10;;;;;;;;;;5097010;28;20047;-59
2021/06/23 07:26:09;;;;;;;2.03;1.38;;;;;;;;;;5092872;28;20463;-59
2021/06/23 07:28:44;;;;;;;4.90;1.52;;;;;;;;;;5096262;28;20024;-59
2021/06/23 07:31:10;;;;;;;7.50;1.70;;;;;;;;;;5096690;28;20020;-59
2021/06/23 07:33:38;;;;;;;3.97;1.55;;;;;;;;;;5095860;28;20032;-59
2021/06/23 07:38:52;;;;;;;2.25;1.52;;;;;;;;;;5095227;28;20027;-60
2021/06/23 07:41:18;;;;;;;2.05;1.33;;;;;;;;;;5096485;28;20024;-59
2021/06/23 07:43:44;;;;;;;2.38;1.88;;;;;;;;;;5096383;28;20028;-59
2021/06/23 07:46:11;;;;;;;2.25;1.48;;;;;;;;;;5096513;28;20077;-60
2021/06/23 07:48:38;;;;;;;2.60;1.60;;;;;;;;;;5095947;28;20028;-59
2021/06/23 07:51:17;;;;;;;3.35;1.80;;;;;;;;;;5096317;28;20024;-60
2021/06/23 07:56:29;;;;;;;3.47;1.40;;;;;;;;;;5095944;28;20031;-59
2021/06/23 08:09:52;;;;;;;4.10;1.52;;;;;;;;;;5095850;28;20047;-60
2021/06/23 08:12:23;;;;;;;2.90;1.77;;;;;;;;;;5095579;28;20020;-60
2021/06/23 08:14:49;;;;;;;3.47;1.88;;;;;;;;;;5095592;28;20020;-60
2021/06/23 08:17:15;;;;;;;3.47;2.10;;;;;;;;;;5093879;28;20406;-60
2021/06/23 08:19:41;;;;;;;3.65;1.88;;;;;;;;;;5095407;28;20091;-61
2021/06/23 08:22:10;;;;;;;3.00;1.80;;;;;;;;;;5095396;28;20095;-60
2021/06/23 08:24:37;;;;;;;3.42;1.92;;;;;;;;;;5095177;28;20127;-60
2021/06/23 08:27:03;;;;;;;6.53;1.95;;;;;;;;;;5094923;28;20481;-60
2021/06/23 08:29:29;;;;;;;2.00;1.17;;;;;;;;;;5095711;28;20422;-60
2021/06/23 08:31:55;;;;;;;2.80;1.90;;;;;;;;;;5094360;28;20112;-60
2021/06/23 08:34:22;;;;;;;3.75;1.80;;;;;;;;;;5095104;28;20338;-60
2021/06/23 08:36:48;;;;;;;4.53;2.70;;;;;;;;;;5095329;28;20346;-60
2021/06/23 08:39:14;;;;;;;2.55;1.92;;;;;;;;;;5094859;28;20046;-60
2021/06/23 08:41:40;;;;;;;2.25;1.52;;;;;;;;;;5095523;28;20226;-60
2021/06/23 08:44:06;;;;;;;1.80;1.10;;;;;;;;;;5094913;28;20089;-60
2021/06/23 08:46:32;;;;;;;2.13;1.58;;;;;;;;;;5094865;28;20075;-60
2021/06/23 08:48:59;;;;;;;2.80;1.73;;;;;;;;;;5094790;28;20028;-60
2021/06/23 08:51:26;;;;;;;2.40;1.60;;;;;;;;;;5095549;28;20020;-61
2021/06/23 08:53:52;;;;;;;3.25;1.20;;;;;;;;;;5094775;28;20023;-61
2021/06/23 08:56:18;;;;;;;3.72;1.33;;;;;;;;;;5093458;28;20027;-61
2021/06/23 08:58:45;;;;;;;2.08;1.20;;;;;;;;;;5094268;28;20080;-61
2021/06/23 09:01:11;;;;;;;2.47;1.38;;;;;;;;;;5095455;28;20414;-60
2021/06/23 09:03:55;;;;;;;2.38;1.08;;;;;;;;;;5094509;28;20051;-61
2021/06/23 09:06:40;;;;;;;2.33;1.40;;;;;;;;;;5094173;28;20419;-61
2021/06/23 09:09:18;;;;;;;1.50;0.88;;;;;;;;;;5093567;28;20067;-61
2021/06/23 09:11:44;;;;;;;1.98;1.20;;;;;;;;;;5094382;28;20028;-61
2021/06/23 09:14:11;;;;;;;1.75;0.98;;;;;;;;;;5094895;28;20410;-61
2021/06/23 09:16:37;;;;;;;2.80;0.93;;;;;;;;;;5094405;28;20021;-60
2021/06/23 09:19:23;;;;;;;1.45;0.82;;;;;;;;;;5092999;28;20034;-61
2021/06/23 09:21:49;;;;;;;1.52;0.73;;;;;;;;;;5094380;28;20031;-60
2021/06/23 09:24:17;;;;;;;1.58;0.68;;;;;;;;;;5093998;28;20103;-61
2021/06/23 09:26:43;;;;;;;1.95;1.00;;;;;;;;;;5094180;28;20024;-61
2021/06/23 09:29:16;;;;;;;1.33;0.73;;;;;;;;;;5094222;28;20024;-58
2021/06/23 09:32:01;;;;;;;1.50;0.68;;;;;;;;;;5094137;28;20028;-58
2021/06/23 09:34:34;;;;;;;1.73;0.98;;;;;;;;;;5094020;28;20032;-60
2021/06/23 09:37:02;;;;;;;1.42;0.75;;;;;;;;;;5094347;28;20023;-60
2021/06/23 09:39:31;;;;;;;1.42;0.65;;;;;;;;;;5094013;28;20020;-60
2021/06/23 09:41:58;;;;;;;2.17;0.65;;;;;;;;;;5094560;28;20039;-59
2021/06/23 09:44:26;;;;;;;1.55;0.75;;;;;;;;;;5093916;28;20023;-60
2021/06/23 09:46:53;;;;;;;2.15;0.75;;;;;;;;;;5093936;28;20020;-60
2021/06/23 09:49:21;;;;;;;1.10;0.43;;;;;;;;;;5093022;28;20066;-60
2021/06/23 09:51:57;;;;;;;1.83;0.65;;;;;;;;;;5094551;28;20024;-59
2021/06/23 09:54:24;;;;;;;1.67;0.70;;;;;;;;;;5093785;28;20020;-60
2021/06/23 09:56:51;;;;;;;0.80;0.30;;;;;;;;;;5093801;28;20024;-60
2021/06/23 09:59:34;;;;;;;1.65;0.70;;;;;;;;;;5094268;28;20031;-60
2021/06/23 10:02:00;;;;;;;0.95;0.50;;;;;;;;;;5093889;28;20489;-60
2021/06/23 10:04:36;;;;;;;0.95;0.50;;;;;;;;;;5093358;28;20546;-60
2021/06/23 10:07:02;;;;;;;0.65;0.28;;;;;;;;;;5093783;28;20024;-60
2021/06/23 10:09:29;;;;;;;1.45;0.55;;;;;;;;;;5093507;28;20086;-60
2021/06/23 10:11:57;;;;;;;0.70;0.30;;;;;;;;;;5093665;28;20036;-60
2021/06/23 10:14:24;;;;;;;0.30;0.20;;;;;;;;;;5092867;28;20035;-60
2021/06/23 10:16:52;;;;;;;1.00;0.30;;;;;;;;;;5094135;28;20016;-60
2021/06/23 10:19:18;;;;;;;0.65;0.30;;;;;;;;;;5093631;28;20028;-60
2021/06/23 10:21:45;;;;;;;1.10;0.30;;;;;;;;;;5094109;28;20028;-60
2021/06/23 10:24:12;;;;;;;1.55;0.30;;;;;;;;;;5093826;28;20137;-60
2021/06/23 10:26:39;;;;;;;0.75;0.30;;;;;;;;;;5092276;28;20059;-60
2021/06/23 10:29:07;;;;;;;1.02;0.43;;;;;;;;;;5093487;28;20366;-60
2021/06/23 10:31:34;;;;;;;1.00;0.35;;;;;;;;;;5094351;28;20338;-60
2021/06/23 10:34:00;;;;;;;1.27;0.40;;;;;;;;;;5092767;28;20024;-60
2021/06/23 10:36:26;;;;;;;0.70;0.20;;;;;;;;;;5093806;28;20024;-60
2021/06/23 10:38:54;;;;;;;1.58;0.40;;;;;;;;;;5093750;28;20048;-60
2021/06/23 10:41:20;;;;;;;3.35;0.43;;;;;;;;;;5093697;28;20020;-60
2021/06/23 10:44:06;;;;;;;0.52;0.20;;;;;;;;;;5093420;28;20025;-60
2021/06/23 10:46:39;;;;;;;0.98;0.40;;;;;;;;;;5093296;28;20035;-60
2021/06/23 10:49:05;;;;;;;1.63;0.50;;;;;;;;;;5093412;28;20342;-60
2021/06/23 10:51:31;;;;;;;1.38;0.60;;;;;;;;;;5093935;28;20027;-60
2021/06/23 10:53:57;;;;;;;0.95;0.40;;;;;;;;;;5093338;28;20499;-60
2021/06/23 10:56:42;;;;;;;1.02;0.57;;;;;;;;;;5093299;28;20107;-60
2021/06/23 10:59:27;;;;;;;0.95;0.40;;;;;;;;;;5093733;28;20020;-60
2021/06/23 11:02:09;;;;;;;1.23;0.50;;;;;;;;;;5096078;28;20028;-60
2021/06/23 11:04:53;;;;;;;0.80;0.40;;;;;;;;;;5096802;28;20526;-60
2021/06/23 11:07:40;;;;;;;0.70;0.30;;;;;;;;;;5096750;28;20065;-60
2021/06/23 11:10:15;;;;;;;1.15;0.43;;;;;;;;;;5097104;28;20381;-60
2021/06/23 11:12:45;;;;;;;1.48;0.30;;;;;;;;;;5097516;28;20049;-60
2021/06/23 11:15:11;;;;;;;1.17;0.57;;;;;;;;;;5096652;28;20115;-60
2021/06/23 11:17:37;;;;;;;0.22;0.13;;;;;;;;;;5096633;28;20477;-60
2021/06/23 11:20:04;;;;;;;0.98;0.43;;;;;;;;;;5096548;28;20028;-60
2021/06/23 11:22:36;;;;;;;0.70;0.30;;;;;;;;;;5096574;28;20081;-60
2021/06/23 11:25:22;;;;;;;1.05;0.50;;;;;;;;;;5096483;28;20048;-60
2021/06/23 11:28:08;;;;;;;0.60;0.22;;;;;;;;;;5096268;28;20062;-60
2021/06/23 11:30:55;;;;;;;1.38;0.70;;;;;;;;;;5096840;28;20017;-60
2021/06/23 11:33:27;;;;;;;0.50;0.20;;;;;;;;;;5083183;28;20032;-60
2021/06/23 11:36:04;;;;;;;0.68;0.30;;;;;;;;;;5096765;28;20092;-60
2021/06/23 11:38:31;;;;;;;1.02;0.45;;;;;;;;;;5096437;28;20032;-60
2021/06/23 11:40:57;;;;;;;0.50;0.25;;;;;;;;;;5096706;28;20024;-60
2021/06/23 11:43:24;;;;;;;3.20;0.63;;;;;;;;;;5095776;28;20027;-60
2021/06/23 11:45:50;;;;;;;0.98;0.45;;;;;;;;;;5095729;28;20039;-60
2021/06/23 11:48:17;;;;;;;0.90;0.40;;;;;;;;;;5096556;28;20505;-60
2021/06/23 11:50:44;;;;;;;1.08;0.52;;;;;;;;;;5094699;28;20081;-60
2021/06/23 11:53:10;;;;;;;1.13;0.45;;;;;;;;;;5095770;28;20032;-60
2021/06/23 11:55:36;;;;;;;0.98;0.40;;;;;;;;;;5095855;28;20098;-60
2021/06/23 11:58:03;;;;;;;0.57;0.20;;;;;;;;;;5096069;28;20020;-60
2021/06/23 12:00:29;;;;;;;1.30;0.55;;;;;;;;;;5095482;28;20365;-60
2021/06/23 12:02:57;;;;;;;0.57;0.32;;;;;;;;;;5095604;28;20120;-59
2021/06/23 12:05:23;;;;;;;1.33;0.60;;;;;;;;;;5095772;28;20047;-59
2021/06/23 12:07:51;;;;;;;1.35;0.47;;;;;;;;;;5095598;28;20016;-59
2021/06/23 12:10:18;;;;;;;1.27;0.47;;;;;;;;;;5095109;28;20044;-59
2021/06/23 12:12:45;;;;;;;1.13;0.40;;;;;;;;;;5093668;28;20035;-59
2021/06/23 12:15:12;;;;;;;0.63;0.32;;;;;;;;;;5095421;28;20024;-59
2021/06/23 12:17:39;;;;;;;0.95;0.40;;;;;;;;;;5095287;28;20020;-59
2021/06/23 12:20:06;;;;;;;1.13;0.52;;;;;;;;;;5095543;28;20020;-59
2021/06/23 12:22:32;;;;;;;0.85;0.35;;;;;;;;;;5095574;28;20030;-59
2021/06/23 12:24:58;;;;;;;0.68;0.25;;;;;;;;;;5095178;28;20011;-59
2021/06/23 12:27:24;;;;;;;0.90;0.40;;;;;;;;;;5095123;28;20028;-59
2021/06/23 12:29:50;;;;;;;1.13;0.50;;;;;;;;;;5095197;28;20374;-59
2021/06/23 12:32:16;;;;;;;0.28;0.20;;;;;;;;;;5095264;28;20024;-59
2021/06/23 12:34:42;;;;;;;1.33;0.50;;;;;;;;;;5095049;28;20054;-59
2021/06/23 12:37:08;;;;;;;0.75;0.40;;;;;;;;;;5095538;28;20464;-59
2021/06/23 12:39:35;;;;;;;0.88;0.20;;;;;;;;;;5095004;28;20020;-59
2021/06/23 12:42:01;;;;;;;1.50;0.50;;;;;;;;;;5095311;28;20028;-59
2021/06/23 12:44:27;;;;;;;0.98;0.40;;;;;;;;;;5094884;28;20361;-59
2021/06/23 12:46:53;;;;;;;0.63;0.30;;;;;;;;;;5094827;28;20024;-59
2021/06/23 12:49:19;;;;;;;1.10;0.50;;;;;;;;;;5094955;28;20043;-59
2021/06/23 12:51:45;;;;;;;0.52;0.25;;;;;;;;;;5095243;28;20028;-59
2021/06/23 12:54:11;;;;;;;0.45;0.28;;;;;;;;;;5094387;28;20028;-59
2021/06/23 12:56:38;;;;;;;1.20;0.50;;;;;;;;;;5094672;28;20030;-59
2021/06/23 12:59:05;;;;;;;0.52;0.25;;;;;;;;;;5094595;28;20358;-59
2021/06/23 13:01:31;;;;;;;0.77;0.40;;;;;;;;;;5095140;28;20351;-59
2021/06/23 13:03:57;;;;;;;0.70;0.30;;;;;;;;;;5095149;28;20024;-59
2021/06/23 13:06:23;;;;;;;0.70;0.28;;;;;;;;;;5094047;28;20020;-59
2021/06/23 13:08:49;;;;;;;1.25;0.55;;;;;;;;;;5094224;28;20055;-59
2021/06/23 13:11:16;;;;;;;1.20;0.57;;;;;;;;;;5094481;28;20036;-60
2021/06/23 13:13:42;;;;;;;0.85;0.35;;;;;;;;;;5094796;28;20115;-59
2021/06/23 13:16:11;;;;;;;0.52;0.30;;;;;;;;;;5094195;28;20016;-59
2021/06/23 13:18:38;;;;;;;0.90;0.30;;;;;;;;;;5093026;28;20060;-59
2021/06/23 13:21:04;;;;;;;1.00;0.40;;;;;;;;;;5094831;28;20020;-59
2021/06/23 13:23:30;;;;;;;1.30;0.50;;;;;;;;;;5094419;28;20032;-59
2021/06/23 13:25:56;;;;;;;1.48;0.77;;;;;;;;;;5093831;28;20073;-59
2021/06/23 13:28:22;;;;;;;0.47;0.20;;;;;;;;;;5094122;28;20021;-59
2021/06/23 13:30:48;;;;;;;0.88;0.50;;;;;;;;;;5094429;28;20035;-59
2021/06/23 13:33:14;;;;;;;2.25;1.42;;;;;;;;;;5093999;28;20039;-59
2021/06/23 13:35:40;;;;;;;2.08;1.05;;;;;;;;;;5094520;28;20066;-59
2021/06/23 13:38:06;;;;;;;3.65;1.60;;;;;;;;;;5094019;28;20048;-59
2021/06/23 13:40:32;;;;;;;1.60;0.90;;;;;;;;;;5094218;28;20024;-59
2021/06/23 13:42:58;;;;;;;9.05;1.55;;;;;;;;;;5094168;28;20024;-59
2021/06/23 13:45:24;;;;;;;2.50;1.35;;;;;;;;;;5093831;28;20096;-59
2021/06/23 13:47:51;;;;;;;1.92;1.00;;;;;;;;;;5093816;28;20483;-59
2021/06/23 13:50:17;;;;;;;2.00;1.02;;;;;;;;;;5093782;28;20020;-59
2021/06/23 13:52:44;;;;;;;1.35;0.75;;;;;;;;;;5094103;28;20178;-59
2021/06/23 13:55:11;;;;;;;1.80;0.90;;;;;;;;;;5093699;28;20026;-59
2021/06/23 13:57:40;;;;;;;2.00;1.00;;;;;;;;;;5093747;28;20035;-59
2021/06/23 14:00:07;;;;;;;1.80;1.13;;;;;;;;;;5093797;28;20032;-59
2021/06/23 14:02:33;;;;;;;3.15;1.38;;;;;;;;;;5094403;28;20036;-59
2021/06/23 14:04:59;;;;;;;2.28;1.75;;;;;;;;;;5094307;28;20019;-59
2021/06/23 14:07:25;;;;;;;2.38;1.13;;;;;;;;;;5093710;28;20059;-59
2021/06/23 14:09:51;;;;;;;2.67;1.27;;;;;;;;;;5093895;28;20123;-59
2021/06/23 14:12:17;;;;;;;1.90;1.13;;;;;;;;;;5093970;28;20085;-59
2021/06/23 14:14:43;;;;;;;1.90;1.20;;;;;;;;;;5092349;28;20385;-59
2021/06/23 14:17:09;;;;;;;3.63;1.42;;;;;;;;;;5093711;28;20052;-59
2021/06/23 14:19:35;;;;;;;8.05;1.50;;;;;;;;;;5093847;28;20032;-59
2021/06/23 14:22:01;;;;;;;1.98;1.25;;;;;;;;;;5093656;28;20024;-58
2021/06/23 14:24:27;;;;;;;2.17;1.40;;;;;;;;;;5093239;28;20016;-59
2021/06/23 14:26:53;;;;;;;2.00;1.35;;;;;;;;;;5093649;28;20024;-59
2021/06/23 14:29:19;;;;;;;5.93;1.63;;;;;;;;;;5093475;28;20126;-59
2021/06/23 14:31:45;;;;;;;2.85;1.48;;;;;;;;;;5093809;28;20077;-58
2021/06/23 14:34:11;;;;;;;2.60;1.35;;;;;;;;;;5094063;28;20095;-58
2021/06/23 14:36:37;;;;;;;2.55;1.67;;;;;;;;;;5096001;28;20057;-58
2021/06/23 14:39:04;;;;;;;2.30;1.60;;;;;;;;;;5097014;28;20046;-59
2021/06/23 14:41:30;;;;;;;2.42;1.55;;;;;;;;;;5097607;28;20377;-59
2021/06/23 14:43:56;;;;;;;1.67;1.13;;;;;;;;;;5097186;28;20063;-59
2021/06/23 14:46:22;;;;;;;2.80;1.63;;;;;;;;;;5097191;28;20052;-59
2021/06/23 14:48:48;;;;;;;1.80;1.17;;;;;;;;;;5097415;28;20362;-58
2021/06/23 14:51:17;;;;;;;2.08;0.98;;;;;;;;;;5096704;28;20020;-58
2021/06/23 14:53:44;;;;;;;1.95;1.33;;;;;;;;;;5096936;28;20074;-59
2021/06/23 14:56:10;;;;;;;4.03;1.25;;;;;;;;;;5096813;28;20345;-59
2021/06/23 14:58:36;;;;;;;2.50;1.50;;;;;;;;;;5097077;28;20442;-58
2021/06/23 15:01:02;;;;;;;3.95;1.50;;;;;;;;;;5097548;28;20024;-58